| time (UTC) | temp C | wind direction | speed KPH | gust KPH | rain 1hr cm | rain 24hr cm | rain mn cm | humidity % | barometer mb |
| 20260902141721 | 23 | 253 | 4.8 | 9.7 | 0.00 | 0.46 | 0.03 | 49 | 1019.1 |
| 20260902141121 | 23 | 285 | 0.0 | 3.2 | 0.00 | 0.46 | 0.03 | 48 | 1019.1 |
| 20260902140524 | 22 | 66 | 0.0 | 3.2 | 0.00 | 0.46 | 0.03 | 52 | 1019.1 |
| 20260902140022 | 22 | 239 | 4.8 | 9.7 | 0.00 | 0.46 | 0.03 | 51 | 1019.3 |
| 20260902135522 | 22 | 255 | 4.8 | 4.8 | 0.00 | 0.46 | 0.03 | 53 | 1019.2 |
| 20260902134924 | 22 | 231 | 3.2 | 6.4 | 0.00 | 0.46 | 0.03 | 51 | 1019.1 |
| 20260902134421 | 22 | 214 | 4.8 | 9.7 | 0.00 | 0.46 | 0.03 | 52 | 1019.1 |
| 20260902133824 | 22 | 277 | 1.6 | 6.4 | 0.00 | 0.46 | 0.03 | 53 | 1019.2 |
| 20260902133321 | 21 | 233 | 3.2 | 4.8 | 0.00 | 0.46 | 0.03 | 55 | 1019.5 |
| 20260902132821 | 22 | 246 | 4.8 | 6.4 | 0.00 | 0.46 | 0.03 | 55 | 1019.3 |
| 20260902132224 | 22 | 173 | 3.2 | 4.8 | 0.00 | 0.46 | 0.03 | 53 | 1019.5 |
| 20260902131721 | 22 | 265 | 4.8 | 9.7 | 0.00 | 0.46 | 0.03 | 53 | 1019.4 |
| 20260902131220 | 21 | 242 | 3.2 | 9.7 | 0.00 | 0.46 | 0.03 | 53 | 1019.6 |
| 20260902130624 | 21 | 278 | 4.8 | 6.4 | 0.00 | 0.46 | 0.03 | 54 | 1019.7 |
| 20260902130121 | 22 | 218 | 1.6 | 6.4 | 0.00 | 0.46 | 0.03 | 56 | 1019.7 |
| 20260902125524 | 21 | 262 | 3.2 | 6.4 | 0.00 | 0.46 | 0.03 | 55 | 1019.6 |
| 20260902125024 | 22 | 267 | 3.2 | 4.8 | 0.00 | 0.46 | 0.03 | 55 | 1019.6 |
| 20260902124424 | 22 | 239 | 4.8 | 6.4 | 0.00 | 0.46 | 0.03 | 54 | 1019.7 |
| 20260902123921 | 22 | 260 | 3.2 | 3.2 | 0.00 | 0.46 | 0.03 | 54 | 1019.7 |
| 20260902123421 | 22 | 246 | 4.8 | 4.8 | 0.00 | 0.46 | 0.03 | 53 | 1019.7 |
| 20260902122921 | 22 | 272 | 1.6 | 4.8 | 0.00 | 0.46 | 0.03 | 53 | 1019.7 |
| 20260902122321 | 22 | 201 | 3.2 | 4.8 | 0.00 | 0.46 | 0.03 | 52 | 1019.8 |
| 20260902121721 | 22 | 271 | 4.8 | 4.8 | 0.00 | 0.46 | 0.03 | 56 | 1019.8 |
| 20260902121220 | 21 | 265 | 1.6 | 3.2 | 0.00 | 0.46 | 0.03 | 55 | 1019.8 |
| 20260902120621 | 22 | 68 | 0.0 | 1.6 | 0.00 | 0.46 | 0.03 | 55 | 1019.9 |
| 20260902120022 | 23 | 110 | 8.0 | 9.7 | 0.00 | 0.46 | 0.03 | 52 | 1019.9 |
| 20260902115421 | 21 | 254 | 3.2 | 4.8 | 0.00 | 0.46 | 0.03 | 55 | 1020.2 |
| 20260902114821 | 21 | 256 | 3.2 | 6.4 | 0.00 | 0.46 | 0.03 | 56 | 1020.2 |
| 20260902114221 | 21 | 242 | 9.7 | 12.9 | 0.00 | 0.46 | 0.03 | 57 | 1020.3 |
| 20260902113624 | 21 | 244 | 0.0 | 4.8 | 0.00 | 0.46 | 0.03 | 59 | 1020.2 |
| 20260902113021 | 21 | 218 | 3.2 | 4.8 | 0.00 | 0.46 | 0.03 | 58 | 1020.2 |
| 20260902112421 | 21 | 163 | 1.6 | 3.2 | 0.00 | 0.46 | 0.03 | 56 | 1020.3 |
| 20260902111920 | 21 | 279 | 4.8 | 4.8 | 0.00 | 0.46 | 0.03 | 55 | 1020.3 |
| 20260902111321 | 21 | 185 | 1.6 | 4.8 | 0.00 | 0.46 | 0.03 | 55 | 1020.2 |
| 20260902110820 | 21 | 213 | 6.4 | 9.7 | 0.00 | 0.46 | 0.03 | 56 | 1020.3 |
| 20260902110225 | 21 | 220 | 3.2 | 6.4 | 0.00 | 0.46 | 0.03 | 57 | 1020.4 |
| 20260902105622 | 21 | 219 | 3.2 | 4.8 | 0.00 | 0.46 | 0.03 | 60 | 1020.5 |
| 20260902105121 | 20 | 182 | 0.0 | 3.2 | 0.00 | 0.46 | 0.03 | 59 | 1020.4 |
| 20260902104522 | 20 | 214 | 3.2 | 3.2 | 0.00 | 0.46 | 0.03 | 57 | 1020.7 |
| 20260902104022 | 20 | 209 | 1.6 | 4.8 | 0.00 | 0.46 | 0.03 | 60 | 1020.5 |
| 20260902103522 | 20 | 217 | 3.2 | 4.8 | 0.00 | 0.46 | 0.03 | 59 | 1020.6 |
| 20260902102924 | 20 | 224 | 1.6 | 11.3 | 0.00 | 0.46 | 0.03 | 60 | 1020.7 |
| 20260902102421 | 20 | 216 | 1.6 | 4.8 | 0.00 | 0.46 | 0.03 | 58 | 1020.9 |
| 20260902101821 | 20 | 203 | 0.0 | 3.2 | 0.00 | 0.46 | 0.03 | 60 | 1020.9 |
| 20260902101221 | 20 | 231 | 3.2 | 4.8 | 0.00 | 0.46 | 0.03 | 59 | 1020.8 |
| 20260902100624 | 20 | 217 | 3.2 | 4.8 | 0.00 | 0.46 | 0.03 | 59 | 1020.9 |
| 20260902100122 | 20 | 220 | 3.2 | 6.4 | 0.00 | 0.46 | 0.03 | 61 | 1020.8 |
| 20260902095621 | 20 | 217 | 3.2 | 4.8 | 0.00 | 0.46 | 0.03 | 65 | 1020.8 |
| 20260902095121 | 20 | 193 | 3.2 | 6.4 | 0.00 | 0.46 | 0.03 | 63 | 1020.9 |
| 20260902094622 | 19 | 218 | 3.2 | 4.8 | 0.00 | 0.46 | 0.03 | 66 | 1020.9 |
| 20260902094121 | 18 | 196 | 1.6 | 3.2 | 0.00 | 0.46 | 0.03 | 66 | 1021.0 |
| 20260902093622 | 19 | 222 | 4.8 | 6.4 | 0.00 | 0.46 | 0.03 | 68 | 1021.2 |
| 20260902093121 | 19 | 219 | 3.2 | 4.8 | 0.00 | 0.46 | 0.03 | 67 | 1021.0 |
| 20260902092522 | 19 | 208 | 1.6 | 3.2 | 0.00 | 0.46 | 0.03 | 69 | 1021.0 |
| 20260902091921 | 19 | 207 | 1.6 | 6.4 | 0.00 | 0.46 | 0.03 | 70 | 1020.7 |
| 20260902091324 | 19 | 213 | 1.6 | 4.8 | 0.00 | 0.46 | 0.03 | 69 | 1021.0 |
| 20260902090821 | 19 | 208 | 3.2 | 6.4 | 0.00 | 0.46 | 0.03 | 68 | 1021.2 |
| 20260902090225 | 20 | 195 | 1.6 | 6.4 | 0.00 | 0.46 | 0.03 | 69 | 1021.1 |
| 20260902085724 | 20 | 218 | 4.8 | 6.4 | 0.00 | 0.46 | 0.03 | 70 | 1021.1 |
| 20260902085224 | 19 | 225 | 3.2 | 3.2 | 0.00 | 0.46 | 0.03 | 72 | 1021.0 |
| 20260902084721 | 19 | 214 | 3.2 | 6.4 | 0.00 | 0.46 | 0.03 | 71 | 1021.1 |
| 20260902084122 | 18 | 195 | 1.6 | 1.6 | 0.00 | 0.46 | 0.03 | 75 | 1021.2 |
| 20260902083621 | 19 | 165 | 3.2 | 6.4 | 0.00 | 0.46 | 0.03 | 73 | 1021.2 |
| 20260902083025 | 18 | 194 | 0.0 | 4.8 | 0.00 | 0.46 | 0.03 | 75 | 1020.9 |
| 20260902082521 | 17 | 167 | 1.6 | 3.2 | 0.00 | 0.46 | 0.03 | 79 | 1021.0 |
| 20260902081924 | 17 | 208 | 1.6 | 4.8 | 0.00 | 0.46 | 0.03 | 77 | 1021.2 |
| 20260902081421 | 17 | 165 | 1.6 | 3.2 | 0.00 | 0.46 | 0.03 | 79 | 1021.1 |
| 20260902080921 | 17 | 214 | 3.2 | 4.8 | 0.00 | 0.46 | 0.03 | 77 | 1021.2 |
| 20260902080421 | 17 | 176 | 0.0 | 3.2 | 0.00 | 0.46 | 0.03 | 80 | 1020.8 |
| 20260902075824 | 17 | 188 | 0.0 | 3.2 | 0.00 | 0.48 | 0.03 | 81 | 1021.2 |
| 20260902075320 | 16 | 188 | 0.0 | 4.8 | 0.00 | 0.48 | 0.03 | 85 | 1021.1 |
| 20260902074820 | 16 | 193 | 0.0 | 1.6 | 0.00 | 0.48 | 0.03 | 87 | 1021.2 |
| 20260902074227 | 16 | 201 | 3.2 | 3.2 | 0.00 | 0.48 | 0.03 | 87 | 1021.3 |
| 20260902073721 | 16 | 203 | 0.0 | 3.2 | 0.00 | 0.48 | 0.03 | 88 | 1021.1 |
| 20260902073220 | 16 | 189 | 0.0 | 3.2 | 0.00 | 0.48 | 0.03 | 88 | 1021.2 |
| 20260902072720 | 16 | 176 | 0.0 | 4.8 | 0.00 | 0.48 | 0.03 | 89 | 1021.1 |
| 20260902072220 | 15 | 172 | 1.6 | 1.6 | 0.00 | 0.48 | 0.03 | 90 | 1021.1 |
| 20260902071720 | 15 | 194 | 1.6 | 3.2 | 0.00 | 0.48 | 0.03 | 89 | 1021.1 |
| 20260902071220 | 15 | 186 | 0.0 | 1.6 | 0.00 | 0.48 | 0.03 | 90 | 1021.3 |
| 20260902070720 | 15 | 183 | 0.0 | 3.2 | 0.00 | 0.48 | 0.03 | 91 | 1021.3 |
| 20260902070122 | 15 | 191 | 1.6 | 1.6 | 0.00 | 0.48 | 0.03 | 92 | 1021.2 |
| 20260902065621 | 14 | 176 | 1.6 | 3.2 | 0.00 | 0.48 | 0.03 | 93 | 1021.2 |
| 20260902065121 | 15 | 195 | 1.6 | 3.2 | 0.00 | 0.48 | 0.03 | 93 | 1021.3 |
| 20260902064621 | 15 | 178 | 1.6 | 1.6 | 0.00 | 0.48 | 0.03 | 94 | 1021.1 |
| 20260902064121 | 14 | 174 | 0.0 | 0.0 | 0.00 | 0.48 | 0.03 | 95 | 1021.1 |
| 20260902063524 | 15 | 163 | 1.6 | 3.2 | 0.00 | 0.48 | 0.03 | 95 | 1021.1 |
| 20260902063024 | 15 | 161 | 1.6 | 4.8 | 0.00 | 0.48 | 0.03 | 96 | 1021.0 |
| 20260902062424 | 14 | 182 | 0.0 | 0.0 | 0.00 | 0.48 | 0.03 | 99 | 1021.1 |
| 20260902061827 | 13 | 186 | 0.0 | 1.6 | 0.00 | 0.48 | 0.03 | 98 | 1021.2 |
| 20260902061321 | 13 | 180 | 1.6 | 1.6 | 0.00 | 0.48 | 0.03 | 99 | 1021.2 |
| 20260902060721 | 13 | 188 | 0.0 | 1.6 | 0.00 | 0.48 | 0.03 | 99 | 1021.2 |
| 20260902060121 | 13 | 183 | 0.0 | 0.0 | 0.00 | 0.48 | 0.03 | 99 | 1021.1 |
| 20260902055621 | 13 | 175 | 0.0 | 1.6 | 0.00 | 0.48 | 0.03 | 99 | 1021.2 |
| 20260902055121 | 12 | 188 | 0.0 | 0.0 | 0.00 | 0.48 | 0.03 | 99 | 1021.4 |
| 20260902054522 | 12 | 184 | 0.0 | 0.0 | 0.00 | 0.48 | 0.03 | 99 | 1021.4 |
| 20260902054021 | 11 | 182 | 0.0 | 0.0 | 0.00 | 0.48 | 0.03 | 99 | 1021.4 |
| 20260902053424 | 11 | 195 | 0.0 | 0.0 | 0.00 | 0.48 | 0.03 | 99 | 1021.5 |
| 20260902052921 | 11 | 190 | 0.0 | 0.0 | 0.00 | 0.48 | 0.03 | 99 | 1021.3 |
| 20260902052321 | 11 | 190 | 0.0 | 0.0 | 0.00 | 0.48 | 0.03 | 99 | 1021.2 |
| 20260902051724 | 11 | 184 | 0.0 | 0.0 | 0.00 | 0.48 | 0.03 | 99 | 1021.2 |
| 20260902051122 | 11 | 183 | 0.0 | 0.0 | 0.00 | 0.48 | 0.03 | 99 | 1021.2 |
| 20260902050524 | 11 | 182 | 0.0 | 0.0 | 0.00 | 0.48 | 0.03 | 99 | 1021.1 |
| 20260902050022 | 10 | 181 | 0.0 | 0.0 | 0.00 | 0.48 | 0.03 | 99 | 1021.2 |
| 20260902045521 | 10 | 181 | 0.0 | 0.0 | 0.00 | 0.48 | 0.03 | 99 | 1021.2 |
| 20260902044924 | 10 | 181 | 0.0 | 0.0 | 0.00 | 0.48 | 0.03 | 98 | 1020.9 |
| 20260902044421 | 10 | 181 | 0.0 | 0.0 | 0.00 | 0.48 | 0.03 | 98 | 1021.2 |
| 20260902043921 | 10 | 181 | 0.0 | 0.0 | 0.00 | 0.48 | 0.03 | 98 | 1021.1 |
| 20260902043421 | 10 | 180 | 0.0 | 0.0 | 0.00 | 0.48 | 0.03 | 98 | 1021.0 |
| 20260902042821 | 10 | 180 | 0.0 | 1.6 | 0.00 | 0.48 | 0.03 | 98 | 1021.2 |
| 20260902042222 | 10 | 183 | 0.0 | 0.0 | 0.00 | 0.48 | 0.03 | 98 | 1021.3 |
| 20260902041621 | 9 | 181 | 0.0 | 0.0 | 0.00 | 0.48 | 0.03 | 98 | 1021.5 |
| 20260902041022 | 9 | 182 | 0.0 | 0.0 | 0.00 | 0.48 | 0.03 | 98 | 1021.5 |
| 20260902040521 | 10 | 182 | 0.0 | 0.0 | 0.00 | 0.48 | 0.03 | 98 | 1021.3 |
| 20260902035922 | 10 | 179 | 0.0 | 0.0 | 0.00 | 0.48 | 0.03 | 98 | 1021.5 |
| 20260902035421 | 10 | 187 | 0.0 | 0.0 | 0.00 | 0.48 | 0.03 | 98 | 1021.4 |
| 20260902034921 | 9 | 189 | 0.0 | 0.0 | 0.00 | 0.48 | 0.03 | 98 | 1021.4 |
| 20260902034421 | 9 | 191 | 0.0 | 0.0 | 0.00 | 0.48 | 0.03 | 98 | 1021.5 |
| 20260902033822 | 10 | 191 | 0.0 | 0.0 | 0.00 | 0.48 | 0.03 | 98 | 1021.4 |
| 20260902033321 | 10 | 192 | 0.0 | 0.0 | 0.00 | 0.48 | 0.03 | 98 | 1021.5 |
| 20260902032721 | 10 | 191 | 0.0 | 0.0 | 0.00 | 0.48 | 0.03 | 98 | 1021.3 |
| 20260902032221 | 10 | 189 | 0.0 | 0.0 | 0.00 | 0.48 | 0.03 | 98 | 1021.0 |
| 20260902031721 | 10 | 189 | 0.0 | 0.0 | 0.00 | 0.48 | 0.03 | 98 | 1020.8 |
| 20260902031221 | 10 | 188 | 0.0 | 0.0 | 0.00 | 0.48 | 0.03 | 98 | 1021.2 |
| 20260902030621 | 10 | 189 | 0.0 | 0.0 | 0.00 | 0.48 | 0.03 | 98 | 1020.9 |
| 20260902030121 | 10 | 191 | 0.0 | 0.0 | 0.00 | 0.48 | 0.03 | 98 | 1021.0 |
| 20260902025621 | 10 | 191 | 0.0 | 0.0 | 0.00 | 0.48 | 0.03 | 98 | 1021.1 |
| 20260902025022 | 10 | 191 | 0.0 | 0.0 | 0.03 | 0.48 | 0.03 | 98 | 1020.8 |
| 20260902024522 | 11 | 191 | 0.0 | 0.0 | 0.03 | 0.48 | 0.03 | 98 | 1021.0 |
| 20260902024021 | 10 | 191 | 0.0 | 0.0 | 0.03 | 0.48 | 0.03 | 98 | 1021.0 |
| 20260902023421 | 10 | 186 | 0.0 | 0.0 | 0.03 | 0.48 | 0.03 | 98 | 1020.8 |
| 20260902022921 | 10 | 185 | 0.0 | 0.0 | 0.03 | 0.48 | 0.03 | 98 | 1020.9 |
| 20260902022321 | 11 | 183 | 0.0 | 0.0 | 0.03 | 0.48 | 0.03 | 98 | 1021.1 |
| 20260902021721 | 11 | 165 | 0.0 | 0.0 | 0.03 | 0.48 | 0.03 | 98 | 1021.0 |
| 20260902021220 | 11 | 165 | 0.0 | 0.0 | 0.03 | 0.48 | 0.03 | 98 | 1020.8 |
| 20260902020622 | 10 | 165 | 0.0 | 0.0 | 0.03 | 0.48 | 0.03 | 98 | 1021.0 |
| 20260902020121 | 11 | 165 | 0.0 | 0.0 | 0.03 | 0.48 | 0.03 | 97 | 1020.8 |
| 20260902015620 | 11 | 165 | 0.0 | 0.0 | 0.00 | 0.46 | 0.00 | 98 | 1020.9 |
| 20260902015021 | 11 | 165 | 0.0 | 0.0 | 0.00 | 0.46 | 0.00 | 97 | 1020.9 |
| 20260902014421 | 11 | 165 | 0.0 | 0.0 | 0.00 | 0.46 | 0.00 | 97 | 1020.9 |
| 20260902013821 | 11 | 216 | 0.0 | 0.0 | 0.00 | 0.46 | 0.00 | 97 | 1021.0 |
| 20260902013321 | 11 | 224 | 0.0 | 0.0 | 0.00 | 0.46 | 0.00 | 97 | 1021.3 |
| 20260902012820 | 11 | 224 | 0.0 | 0.0 | 0.00 | 0.46 | 0.00 | 97 | 1021.3 |
| 20260902012221 | 12 | 224 | 0.0 | 0.0 | 0.00 | 0.46 | 0.00 | 98 | 1021.1 |
| 20260902011720 | 12 | 225 | 0.0 | 1.6 | 0.00 | 0.46 | 0.00 | 98 | 1021.2 |
| 20260902011126 | 11 | 234 | 1.6 | 1.6 | 0.00 | 0.46 | 0.00 | 98 | 1021.0 |
| 20260902010621 | 11 | 236 | 0.0 | 0.0 | 0.00 | 0.46 | 0.00 | 97 | 1021.1 |
| 20260902010121 | 11 | 236 | 0.0 | 0.0 | 0.00 | 0.46 | 0.00 | 97 | 1021.3 |
| 20260902005621 | 11 | 236 | 0.0 | 0.0 | 0.00 | 0.46 | 0.00 | 97 | 1021.0 |
| 20260902005022 | 12 | 237 | 0.0 | 0.0 | 0.00 | 0.46 | 0.00 | 97 | 1021.1 |
| 20260902004422 | 12 | 254 | 0.0 | 0.0 | 0.00 | 0.46 | 0.00 | 97 | 1021.2 |
| 20260902003921 | 12 | 257 | 0.0 | 0.0 | 0.00 | 0.46 | 0.00 | 97 | 1021.1 |
| 20260902003421 | 12 | 259 | 0.0 | 0.0 | 0.00 | 0.46 | 0.00 | 97 | 1021.0 |
| 20260902002921 | 12 | 259 | 0.0 | 0.0 | 0.00 | 0.46 | 0.00 | 97 | 1021.2 |
| 20260902002421 | 12 | 259 | 0.0 | 0.0 | 0.00 | 0.46 | 0.00 | 97 | 1020.9 |
| 20260902001821 | 12 | 274 | 0.0 | 0.0 | 0.00 | 0.46 | 0.00 | 97 | 1021.1 |
| 20260902001221 | 12 | 284 | 0.0 | 0.0 | 0.00 | 0.46 | 0.00 | 96 | 1021.0 |
| 20260902000621 | 12 | 263 | 0.0 | 0.0 | 0.00 | 0.46 | 0.00 | 96 | 1020.8 |
| 20260902000022 | 12 | 259 | 0.0 | 0.0 | 0.00 | 0.46 | 0.00 | 96 | 1020.9 |
| 20260901235522 | 12 | 259 | 0.0 | 0.0 | 0.00 | 0.46 | 0.00 | 96 | 1020.9 |
| 20260901234922 | 12 | 259 | 0.0 | 0.0 | 0.00 | 0.46 | 0.00 | 96 | 1020.9 |
| 20260901234421 | 12 | 259 | 0.0 | 0.0 | 0.00 | 0.46 | 0.00 | 96 | 1021.0 |
| 20260901233821 | 12 | 265 | 0.0 | 0.0 | 0.00 | 0.46 | 0.00 | 96 | 1020.6 |
| 20260901233221 | 13 | 273 | 0.0 | 0.0 | 0.00 | 0.46 | 0.00 | 96 | 1020.6 |
| 20260901232621 | 13 | 274 | 0.0 | 0.0 | 0.00 | 0.46 | 0.00 | 96 | 1020.7 |
| 20260901232022 | 13 | 283 | 0.0 | 0.0 | 0.00 | 0.46 | 0.00 | 95 | 1020.6 |
| 20260901231521 | 13 | 285 | 0.0 | 0.0 | 0.00 | 0.46 | 0.00 | 95 | 1020.7 |
| 20260901230921 | 13 | 285 | 0.0 | 0.0 | 0.00 | 0.46 | 0.00 | 95 | 1020.6 |
| 20260901230420 | 13 | 285 | 0.0 | 0.0 | 0.00 | 0.46 | 0.00 | 95 | 1020.5 |
| 20260901225822 | 13 | 273 | 0.0 | 1.6 | 0.00 | 0.46 | 0.00 | 95 | 1020.8 |
| 20260901225321 | 14 | 245 | 0.0 | 0.0 | 0.00 | 0.46 | 0.00 | 96 | 1020.7 |
| 20260901224821 | 14 | 267 | 0.0 | 4.8 | 0.00 | 0.46 | 0.00 | 96 | 1020.6 |
| 20260901224221 | 14 | 267 | 0.0 | 1.6 | 0.00 | 0.46 | 0.00 | 96 | 1020.6 |
| 20260901223621 | 13 | 241 | 0.0 | 1.6 | 0.00 | 0.46 | 0.00 | 95 | 1020.8 |
| 20260901223022 | 14 | 258 | 0.0 | 0.0 | 0.00 | 0.46 | 0.00 | 95 | 1020.8 |
| 20260901222421 | 14 | 251 | 0.0 | 1.6 | 0.00 | 0.46 | 0.00 | 96 | 1020.7 |
| 20260901221821 | 14 | 285 | 0.0 | 0.0 | 0.00 | 0.46 | 0.00 | 96 | 1020.4 |
| 20260901221221 | 14 | 261 | 0.0 | 1.6 | 0.00 | 0.46 | 0.00 | 96 | 1020.7 |
| 20260901220621 | 14 | 270 | 1.6 | 1.6 | 0.00 | 0.46 | 0.00 | 96 | 1020.7 |
| 20260901220021 | 14 | 268 | 0.0 | 1.6 | 0.00 | 0.46 | 0.00 | 96 | 1020.7 |
| 20260901215421 | 14 | 244 | 0.0 | 1.6 | 0.00 | 0.46 | 0.46 | 96 | 1020.7 |
| 20260901214821 | 15 | 230 | 0.0 | 0.0 | 0.00 | 0.46 | 0.46 | 96 | 1020.5 |
| 20260901214221 | 15 | 242 | 0.0 | 1.6 | 0.00 | 0.46 | 0.46 | 96 | 1020.6 |
| 20260901213621 | 15 | 250 | 1.6 | 1.6 | 0.00 | 0.46 | 0.46 | 96 | 1020.8 |
| 20260901213021 | 15 | 247 | 0.0 | 1.6 | 0.00 | 0.46 | 0.46 | 96 | 1020.4 |
| 20260901212421 | 15 | 224 | 0.0 | 1.6 | 0.00 | 0.46 | 0.46 | 96 | 1020.5 |
| 20260901211920 | 15 | 233 | 0.0 | 0.0 | 0.00 | 0.46 | 0.46 | 96 | 1020.4 |
| 20260901211321 | 15 | 226 | 0.0 | 0.0 | 0.00 | 0.46 | 0.46 | 96 | 1020.4 |
| 20260901210721 | 15 | 226 | 0.0 | 0.0 | 0.00 | 0.46 | 0.46 | 96 | 1020.5 |
| 20260901210221 | 15 | 226 | 0.0 | 0.0 | 0.00 | 0.46 | 0.46 | 96 | 1020.5 |
| 20260901205621 | 15 | 225 | 0.0 | 0.0 | 0.00 | 0.46 | 0.46 | 96 | 1020.6 |
| 20260901205021 | 15 | 226 | 0.0 | 0.0 | 0.00 | 0.46 | 0.46 | 96 | 1020.3 |
| 20260901204521 | 15 | 226 | 0.0 | 0.0 | 0.00 | 0.46 | 0.46 | 96 | 1020.3 |
| 20260901203921 | 15 | 225 | 0.0 | 0.0 | 0.00 | 0.46 | 0.46 | 96 | 1020.4 |
| 20260901203321 | 16 | 223 | 0.0 | 0.0 | 0.00 | 0.46 | 0.46 | 95 | 1020.1 |
| 20260901202820 | 16 | 222 | 0.0 | 0.0 | 0.00 | 0.46 | 0.46 | 95 | 1020.3 |
| 20260901202221 | 16 | 223 | 0.0 | 0.0 | 0.00 | 0.46 | 0.46 | 95 | 1020.3 |
| 20260901201621 | 16 | 219 | 1.6 | 1.6 | 0.00 | 0.46 | 0.46 | 95 | 1020.3 |
| 20260901201022 | 15 | 243 | 0.0 | 0.0 | 0.00 | 0.46 | 0.46 | 95 | 1020.4 |
| 20260901200521 | 16 | 247 | 0.0 | 0.0 | 0.00 | 0.46 | 0.46 | 95 | 1020.2 |
| 20260901195922 | 15 | 247 | 0.0 | 0.0 | 0.00 | 0.46 | 0.46 | 95 | 1020.3 |
| 20260901195421 | 16 | 249 | 0.0 | 0.0 | 0.00 | 0.46 | 0.46 | 95 | 1020.0 |
| 20260901194922 | 16 | 250 | 0.0 | 0.0 | 0.00 | 0.46 | 0.46 | 95 | 1020.1 |
| 20260901194322 | 16 | 263 | 0.0 | 0.0 | 0.00 | 0.46 | 0.46 | 95 | 1020.1 |
| 20260901193722 | 16 | 263 | 0.0 | 1.6 | 0.00 | 0.46 | 0.46 | 95 | 1020.2 |
| 20260901193122 | 16 | 243 | 1.6 | 1.6 | 0.00 | 0.46 | 0.46 | 95 | 1020.2 |
| 20260901192523 | 16 | 254 | 0.0 | 1.6 | 0.00 | 0.46 | 0.46 | 95 | 1020.0 |
| 20260901192021 | 16 | 213 | 1.6 | 3.2 | 0.00 | 0.46 | 0.46 | 95 | 1020.1 |
| 20260901191521 | 16 | 239 | 1.6 | 1.6 | 0.00 | 0.46 | 0.46 | 95 | 1019.9 |
| 20260901191021 | 16 | 241 | 0.0 | 0.0 | 0.00 | 0.46 | 0.46 | 95 | 1020.0 |
| 20260901190421 | 16 | 233 | 0.0 | 1.6 | 0.00 | 0.46 | 0.46 | 95 | 1019.9 |
| 20260901185821 | 16 | 241 | 0.0 | 0.0 | 0.00 | 0.46 | 0.46 | 95 | 1019.8 |
| 20260901185321 | 16 | 238 | 0.0 | 0.0 | 0.00 | 0.46 | 0.46 | 94 | 1019.8 |
| 20260901184721 | 16 | 254 | 0.0 | 0.0 | 0.00 | 0.46 | 0.46 | 94 | 1019.7 |
| 20260901184121 | 16 | 291 | 0.0 | 1.6 | 0.00 | 0.46 | 0.46 | 94 | 1019.7 |
| 20260901183521 | 16 | 247 | 0.0 | 0.0 | 0.00 | 0.46 | 0.46 | 94 | 1019.9 |
| 20260901182921 | 16 | 249 | 0.0 | 0.0 | 0.03 | 0.46 | 0.46 | 93 | 1019.7 |
| 20260901182421 | 16 | 254 | 0.0 | 0.0 | 0.08 | 0.46 | 0.46 | 93 | 1019.7 |
| 20260901181821 | 16 | 284 | 0.0 | 1.6 | 0.08 | 0.46 | 0.46 | 92 | 1019.7 |
| 20260901181320 | 16 | 273 | 0.0 | 0.0 | 0.08 | 0.46 | 0.46 | 92 | 1019.6 |
| 20260901180820 | 16 | 240 | 0.0 | 1.6 | 0.08 | 0.46 | 0.46 | 92 | 1019.4 |
| 20260901180221 | 16 | 240 | 1.6 | 1.6 | 0.08 | 0.46 | 0.46 | 92 | 1019.3 |
| 20260901175621 | 16 | 218 | 3.2 | 4.8 | 0.13 | 0.64 | 0.46 | 92 | 1019.1 |
| 20260901175022 | 16 | 215 | 3.2 | 3.2 | 0.23 | 0.64 | 0.46 | 92 | 1019.3 |
| 20260901174421 | 16 | 217 | 1.6 | 3.2 | 0.30 | 0.64 | 0.46 | 92 | 1019.3 |
| 20260901173823 | 16 | 238 | 3.2 | 9.7 | 0.41 | 0.64 | 0.46 | 91 | 1019.0 |
| 20260901173221 | 16 | 259 | 4.8 | 12.9 | 0.43 | 0.64 | 0.46 | 91 | 1019.2 |
| 20260901172621 | 16 | 254 | 3.2 | 6.4 | 0.36 | 0.56 | 0.38 | 91 | 1019.3 |
| 20260901172120 | 16 | 282 | 1.6 | 6.4 | 0.36 | 0.56 | 0.38 | 92 | 1019.3 |
| 20260901171620 | 15 | 251 | 3.2 | 3.2 | 0.36 | 0.56 | 0.38 | 92 | 1019.5 |
| 20260901171021 | 15 | 336 | 0.0 | 3.2 | 0.36 | 0.56 | 0.38 | 91 | 1019.2 |
| 20260901170421 | 16 | 271 | 1.6 | 3.2 | 0.36 | 0.56 | 0.38 | 90 | 1019.2 |
| 20260901165824 | 16 | 251 | 1.6 | 9.7 | 0.25 | 0.48 | 0.28 | 89 | 1019.4 |
| 20260901165221 | 16 | 267 | 4.8 | 16.1 | 0.18 | 0.41 | 0.20 | 87 | 1019.5 |
| 20260901164621 | 17 | 267 | 6.4 | 12.9 | 0.15 | 0.38 | 0.18 | 85 | 1019.4 |
| 20260901164021 | 19 | 268 | 6.4 | 16.1 | 0.03 | 0.25 | 0.05 | 75 | 1019.1 |
| 20260901163421 | 22 | 266 | 11.3 | 22.5 | 0.00 | 0.23 | 0.03 | 61 | 1018.9 |
| 20260901162821 | 22 | 274 | 3.2 | 11.3 | 0.00 | 0.23 | 0.03 | 55 | 1018.3 |
| 20260901162224 | 22 | 305 | 3.2 | 6.4 | 0.00 | 0.23 | 0.03 | 56 | 1018.3 |
| 20260901161623 | 22 | 251 | 1.6 | 4.8 | 0.00 | 0.23 | 0.03 | 55 | 1018.5 |
| 20260901161022 | 22 | 280 | 6.4 | 9.7 | 0.00 | 0.23 | 0.03 | 55 | 1018.2 |
| 20260901160421 | 22 | 265 | 1.6 | 14.5 | 0.00 | 0.23 | 0.03 | 54 | 1018.3 |
| 20260901155822 | 22 | 246 | 6.4 | 12.9 | 0.00 | 0.23 | 0.03 | 53 | 1018.3 |
| 20260901155221 | 23 | 281 | 8.0 | 16.1 | 0.00 | 0.23 | 0.03 | 50 | 1018.3 |
| 20260901154621 | 23 | 260 | 11.3 | 16.1 | 0.00 | 0.23 | 0.03 | 49 | 1018.2 |
| 20260901154027 | 23 | 261 | 4.8 | 16.1 | 0.00 | 0.23 | 0.03 | 51 | 1018.1 |
| 20260901153521 | 23 | 274 | 4.8 | 6.4 | 0.00 | 0.23 | 0.03 | 52 | 1018.3 |
| 20260901152921 | 23 | 247 | 3.2 | 9.7 | 0.00 | 0.23 | 0.03 | 51 | 1018.2 |
| 20260901152420 | 25 | 204 | 6.4 | 11.3 | 0.00 | 0.23 | 0.03 | 48 | 1018.4 |
| 20260901151827 | 24 | 254 | 6.4 | 6.4 | 0.00 | 0.23 | 0.03 | 47 | 1018.2 |
| 20260901151224 | 24 | 344 | 6.4 | 20.9 | 0.00 | 0.23 | 0.03 | 47 | 1018.0 |
| 20260901150721 | 23 | 247 | 6.4 | 11.3 | 0.00 | 0.23 | 0.03 | 48 | 1018.1 |
| 20260901150124 | 23 | 304 | 6.4 | 9.7 | 0.00 | 0.23 | 0.03 | 49 | 1018.2 |
| 20260901145622 | 24 | 328 | 6.4 | 11.3 | 0.00 | 0.79 | 0.03 | 48 | 1018.2 |
| 20260901145022 | 23 | 288 | 1.6 | 12.9 | 0.00 | 0.79 | 0.03 | 52 | 1018.3 |
| 20260901144522 | 23 | 267 | 6.4 | 14.5 | 0.00 | 0.79 | 0.03 | 50 | 1018.1 |
| 20260901143922 | 23 | 220 | 6.4 | 12.9 | 0.00 | 0.79 | 0.03 | 51 | 1018.2 |
| 20260901143322 | 24 | 267 | 4.8 | 11.3 | 0.00 | 0.79 | 0.03 | 50 | 1018.3 |
| 20260901142821 | 23 | 262 | 6.4 | 12.9 | 0.00 | 0.79 | 0.03 | 51 | 1018.2 |
| 20260901142222 | 23 | 235 | 8.0 | 12.9 | 0.00 | 0.79 | 0.03 | 50 | 1018.4 |